createdAt,value
2023-03-20T00:00:52.602Z,0.00
2023-03-20T00:01:52.596Z,0.00
2023-03-20T00:02:52.571Z,0.00
2023-03-20T00:03:52.625Z,0.00
2023-03-20T00:04:52.650Z,0.00
2023-03-20T00:05:57.567Z,0.00
2023-03-20T00:06:52.549Z,0.00
2023-03-20T00:07:52.508Z,0.00
2023-03-20T00:08:52.505Z,0.00
2023-03-20T00:09:52.498Z,0.00
2023-03-20T00:10:52.473Z,0.00
2023-03-20T00:11:52.467Z,0.00
2023-03-20T00:12:52.470Z,0.00
2023-03-20T00:13:52.448Z,0.00
2023-03-20T00:14:52.435Z,0.00
2023-03-20T00:15:52.488Z,0.00
2023-03-20T00:16:57.457Z,0.00
2023-03-20T00:17:52.400Z,0.00
2023-03-20T00:18:52.394Z,0.00
2023-03-20T00:19:52.390Z,0.00
2023-03-20T00:20:52.361Z,0.00
2023-03-20T00:21:52.355Z,0.00
2023-03-20T00:22:52.339Z,0.00
2023-03-20T00:23:52.330Z,0.00
2023-03-20T00:24:52.349Z,0.00
2023-03-20T00:25:52.322Z,0.00
2023-03-20T00:26:52.295Z,0.00
2023-03-20T00:27:57.349Z,0.00
2023-03-20T00:28:52.272Z,0.00
2023-03-20T00:29:52.262Z,0.00
2023-03-20T00:30:52.273Z,0.00
2023-03-20T00:31:52.466Z,0.00
2023-03-20T00:32:52.316Z,0.00
2023-03-20T00:33:52.238Z,0.00
2023-03-20T00:34:52.207Z,0.00
2023-03-20T00:35:52.227Z,0.00
2023-03-20T00:36:52.187Z,0.00
2023-03-20T00:37:52.184Z,0.00
2023-03-20T00:38:57.225Z,0.00
2023-03-20T00:39:52.154Z,0.00
2023-03-20T00:40:52.152Z,0.00
2023-03-20T00:41:52.136Z,0.00
2023-03-20T00:42:52.122Z,0.00
2023-03-20T00:43:52.109Z,0.00
2023-03-20T00:44:52.142Z,0.00
2023-03-20T00:45:52.129Z,0.00
2023-03-20T00:46:52.117Z,0.00
2023-03-20T00:47:52.068Z,0.00
2023-03-20T00:48:52.082Z,0.00
2023-03-20T00:49:57.070Z,0.00
2023-03-20T00:50:52.112Z,0.00
2023-03-20T00:51:52.026Z,0.00
2023-03-20T00:52:52.018Z,0.00
2023-03-20T00:53:52.013Z,0.00
2023-03-20T00:54:52.011Z,0.00
2023-03-20T00:55:51.988Z,0.00
2023-03-20T00:56:51.968Z,0.00
2023-03-20T00:57:51.961Z,0.00
2023-03-20T00:58:51.965Z,0.00
2023-03-20T00:59:51.945Z,0.00
2023-03-20T01:00:56.969Z,0.00
2023-03-20T01:01:51.955Z,0.00
2023-03-20T01:02:51.918Z,0.00
2023-03-20T01:03:51.888Z,0.00
2023-03-20T01:04:51.898Z,0.00
2023-03-20T01:05:51.896Z,0.00
2023-03-20T01:06:51.851Z,0.00
2023-03-20T01:07:51.844Z,0.00
2023-03-20T01:08:51.851Z,0.00
2023-03-20T01:09:51.831Z,0.00
2023-03-20T01:10:51.826Z,0.00
2023-03-20T01:11:56.822Z,0.00
2023-03-20T01:12:51.788Z,0.00
2023-03-20T01:13:51.776Z,0.00
2023-03-20T01:14:51.782Z,0.00
2023-03-20T01:15:51.765Z,0.00
2023-03-20T01:16:51.838Z,0.00
2023-03-20T01:17:51.729Z,0.00
2023-03-20T01:18:51.716Z,0.00
2023-03-20T01:19:51.716Z,0.00
2023-03-20T01:20:51.733Z,0.00
2023-03-20T01:21:51.687Z,0.00
2023-03-20T01:22:56.701Z,0.00
2023-03-20T01:23:51.695Z,0.00
2023-03-20T01:24:51.651Z,0.00
2023-03-20T01:25:51.650Z,0.00
2023-03-20T01:26:51.656Z,0.00
2023-03-20T01:27:51.632Z,0.00
2023-03-20T01:28:51.607Z,0.00
2023-03-20T01:29:51.598Z,0.00
2023-03-20T01:30:51.593Z,0.00
2023-03-20T01:31:51.654Z,0.00
2023-03-20T01:32:51.605Z,0.00
2023-03-20T01:33:56.576Z,0.00
2023-03-20T01:34:51.545Z,0.00
2023-03-20T01:35:51.584Z,0.00
2023-03-20T01:36:51.537Z,0.00
2023-03-20T01:37:51.514Z,0.00
2023-03-20T01:38:51.518Z,0.00
2023-03-20T01:39:51.490Z,0.00
2023-03-20T01:40:51.483Z,0.00
2023-03-20T01:41:51.470Z,0.00
2023-03-20T01:42:51.452Z,0.00
2023-03-20T01:43:51.453Z,0.00
2023-03-20T01:44:56.485Z,0.00
2023-03-20T01:45:51.443Z,0.00
2023-03-20T01:46:51.416Z,0.00
2023-03-20T01:47:51.396Z,0.00
2023-03-20T01:48:51.382Z,0.00
2023-03-20T01:49:51.393Z,0.00
2023-03-20T01:50:51.389Z,0.00
2023-03-20T01:51:51.365Z,0.00
2023-03-20T01:52:51.364Z,0.00
2023-03-20T01:53:51.338Z,0.00
2023-03-20T01:54:51.317Z,0.00
2023-03-20T01:55:56.384Z,0.00
2023-03-20T01:56:51.297Z,0.00
2023-03-20T01:57:51.292Z,0.00
2023-03-20T01:58:51.274Z,0.00
2023-03-20T01:59:51.289Z,0.00
2023-03-20T02:00:51.326Z,0.00
2023-03-20T02:01:51.287Z,0.00
2023-03-20T02:02:51.237Z,0.00
2023-03-20T02:03:51.232Z,0.00
2023-03-20T02:04:51.285Z,0.00
2023-03-20T02:05:51.215Z,0.00
2023-03-20T02:06:56.216Z,0.00
2023-03-20T02:07:51.218Z,0.00
2023-03-20T02:08:51.236Z,0.00
2023-03-20T02:09:51.156Z,0.00
2023-03-20T02:10:51.142Z,0.00
2023-03-20T02:11:51.151Z,0.00
2023-03-20T02:12:51.123Z,0.00
2023-03-20T02:13:51.129Z,0.00
2023-03-20T02:14:51.096Z,0.00
2023-03-20T02:15:51.088Z,0.00
2023-03-20T02:16:51.098Z,0.00
2023-03-20T02:17:56.096Z,0.00
2023-03-20T02:18:51.056Z,0.00
2023-03-20T02:19:51.077Z,0.00
2023-03-20T02:20:51.031Z,0.00
2023-03-20T02:21:51.030Z,0.00
2023-03-20T02:22:51.012Z,0.00
2023-03-20T02:23:51.010Z,0.00
2023-03-20T02:24:51.006Z,0.00
2023-03-20T02:25:50.999Z,0.00
2023-03-20T02:26:50.980Z,0.00
2023-03-20T02:27:50.954Z,0.00
2023-03-20T02:28:55.965Z,0.00
2023-03-20T02:29:50.929Z,0.00
2023-03-20T02:30:50.931Z,0.00
2023-03-20T02:31:50.934Z,0.00
2023-03-20T02:32:50.950Z,0.00
2023-03-20T02:33:50.897Z,0.00
2023-03-20T02:34:50.876Z,0.00
2023-03-20T02:35:50.885Z,0.00
2023-03-20T02:36:50.860Z,0.00
2023-03-20T02:37:50.867Z,0.00
2023-03-20T02:38:50.828Z,0.00
2023-03-20T02:39:55.868Z,0.00
2023-03-20T02:40:50.810Z,0.00
2023-03-20T02:41:50.842Z,0.00
2023-03-20T02:42:50.786Z,0.00
2023-03-20T02:43:50.805Z,0.00
2023-03-20T02:44:50.762Z,0.00
2023-03-20T02:45:50.828Z,0.00
2023-03-20T02:46:50.751Z,0.00
2023-03-20T02:47:50.735Z,0.00
2023-03-20T02:48:50.720Z,0.00
2023-03-20T02:49:50.740Z,0.00
2023-03-20T02:50:55.730Z,0.00
2023-03-20T02:51:50.696Z,0.00
2023-03-20T02:52:50.678Z,0.00
2023-03-20T02:53:50.667Z,0.00
2023-03-20T02:54:50.652Z,0.00
2023-03-20T02:55:50.676Z,0.00
2023-03-20T02:56:50.642Z,0.00
2023-03-20T02:57:50.623Z,0.00
2023-03-20T02:58:50.634Z,0.00
2023-03-20T02:59:50.596Z,0.00
2023-03-20T03:00:50.586Z,0.00
2023-03-20T03:01:55.668Z,0.00
2023-03-20T03:02:50.670Z,0.00
2023-03-20T03:03:50.556Z,0.00
2023-03-20T03:04:50.546Z,0.00
2023-03-20T03:05:50.533Z,0.00
2023-03-20T03:06:50.549Z,0.00
2023-03-20T03:07:50.512Z,0.00
2023-03-20T03:08:50.509Z,0.00
2023-03-20T03:09:50.496Z,0.00
2023-03-20T03:10:50.492Z,0.00
2023-03-20T03:11:50.505Z,0.00
2023-03-20T03:12:55.489Z,0.00
2023-03-20T03:13:50.504Z,0.00
2023-03-20T03:14:50.441Z,0.00
2023-03-20T03:15:50.534Z,0.00
2023-03-20T03:16:50.408Z,0.00
2023-03-20T03:17:50.409Z,0.00
2023-03-20T03:18:50.395Z,0.00
2023-03-20T03:19:50.390Z,0.00
2023-03-20T03:20:50.368Z,0.00
2023-03-20T03:21:50.352Z,0.00
2023-03-20T03:22:50.353Z,0.00
2023-03-20T03:23:55.367Z,0.00
2023-03-20T03:24:50.320Z,0.00
2023-03-20T03:25:50.340Z,0.00
2023-03-20T03:26:50.302Z,0.00
2023-03-20T03:27:50.317Z,0.00
2023-03-20T03:28:50.278Z,0.00
2023-03-20T03:29:50.263Z,0.00
2023-03-20T03:30:50.296Z,0.00
2023-03-20T03:31:50.287Z,0.00
2023-03-20T03:32:50.259Z,0.00
2023-03-20T03:33:50.221Z,0.00
2023-03-20T03:34:55.235Z,0.00
2023-03-20T03:35:50.224Z,0.00
2023-03-20T03:36:50.188Z,0.00
2023-03-20T03:37:50.204Z,0.00
2023-03-20T03:38:50.166Z,0.00
2023-03-20T03:39:50.161Z,0.00
2023-03-20T03:40:50.148Z,0.00
2023-03-20T03:41:50.136Z,0.00
2023-03-20T03:42:50.130Z,0.00
2023-03-20T03:43:50.139Z,0.00
2023-03-20T03:44:50.107Z,0.00
2023-03-20T03:45:55.122Z,0.00
2023-03-20T03:46:50.132Z,0.00
2023-03-20T03:47:50.076Z,0.00
2023-03-20T03:48:50.050Z,0.00
2023-03-20T03:49:50.057Z,0.00
2023-03-20T03:50:50.028Z,0.00
2023-03-20T03:51:50.021Z,0.00
2023-03-20T03:52:50.020Z,0.00
2023-03-20T03:53:49.999Z,0.00
2023-03-20T03:54:49.988Z,0.00
2023-03-20T03:55:50.111Z,0.00
2023-03-20T03:56:54.994Z,0.00
2023-03-20T03:57:49.963Z,0.00
2023-03-20T03:58:49.940Z,0.00
2023-03-20T03:59:49.955Z,0.00
2023-03-20T04:00:49.923Z,0.00
2023-03-20T04:01:49.929Z,0.00
2023-03-20T04:02:49.908Z,0.00
2023-03-20T04:03:49.888Z,0.00
2023-03-20T04:04:49.964Z,0.00
2023-03-20T04:05:49.871Z,0.00
2023-03-20T04:06:49.856Z,0.00
2023-03-20T04:07:54.937Z,0.00
2023-03-20T04:08:49.836Z,0.00
2023-03-20T04:09:49.832Z,0.00
2023-03-20T04:10:49.818Z,0.00
2023-03-20T04:11:49.807Z,0.00
2023-03-20T04:12:49.812Z,0.00
2023-03-20T04:13:49.805Z,0.00
2023-03-20T04:14:49.771Z,0.00
2023-03-20T04:15:49.902Z,0.00
2023-03-20T04:16:49.748Z,0.00
2023-03-20T04:17:49.736Z,0.00
2023-03-20T04:18:54.756Z,0.00
2023-03-20T04:19:49.730Z,0.00
2023-03-20T04:20:49.714Z,0.00
2023-03-20T04:21:49.693Z,0.00
2023-03-20T04:22:49.694Z,0.00
2023-03-20T04:23:49.683Z,0.00
2023-03-20T04:24:49.659Z,0.00
2023-03-20T04:25:49.670Z,0.00
2023-03-20T04:26:49.636Z,0.00
2023-03-20T04:27:49.660Z,0.00
2023-03-20T04:28:49.632Z,0.00
2023-03-20T04:29:54.627Z,0.00
2023-03-20T04:30:49.593Z,0.00
2023-03-20T04:31:49.779Z,0.00
2023-03-20T04:32:49.648Z,0.00
2023-03-20T04:33:49.586Z,0.00
2023-03-20T04:34:49.549Z,0.00
2023-03-20T04:35:49.574Z,0.00
2023-03-20T04:36:49.528Z,0.00
2023-03-20T04:37:49.533Z,0.00
2023-03-20T04:38:49.511Z,0.00
2023-03-20T04:39:49.494Z,0.00
2023-03-20T04:40:54.514Z,0.00
2023-03-20T04:41:49.478Z,0.00
2023-03-20T04:42:49.456Z,0.00
2023-03-20T04:43:49.496Z,0.00
2023-03-20T04:44:49.438Z,0.00
2023-03-20T04:45:49.471Z,0.00
2023-03-20T04:46:49.418Z,0.00
2023-03-20T04:47:49.424Z,0.00
2023-03-20T04:48:49.409Z,0.00
2023-03-20T04:49:49.401Z,0.00
2023-03-20T04:50:49.371Z,0.00
2023-03-20T04:51:54.381Z,0.00
2023-03-20T04:52:49.349Z,0.00
2023-03-20T04:53:49.347Z,0.00
2023-03-20T04:54:49.325Z,0.00
2023-03-20T04:55:49.342Z,0.00
2023-03-20T04:56:49.303Z,0.00
2023-03-20T04:57:49.303Z,0.00
2023-03-20T04:58:49.291Z,0.00
2023-03-20T04:59:49.275Z,0.00
2023-03-20T05:00:49.300Z,0.00
2023-03-20T05:01:49.267Z,0.00
2023-03-20T05:02:54.281Z,0.00
2023-03-20T05:03:49.266Z,0.00
2023-03-20T05:04:49.222Z,0.00
2023-03-20T05:05:49.204Z,0.00
2023-03-20T05:06:49.270Z,0.00
2023-03-20T05:07:49.203Z,4.00
2023-03-20T05:08:49.180Z,4.00
2023-03-20T05:09:49.159Z,0.00
2023-03-20T05:10:49.146Z,4.00
2023-03-20T05:11:49.136Z,4.00
2023-03-20T05:12:49.126Z,4.00
2023-03-20T05:13:54.179Z,4.00
2023-03-20T05:14:49.100Z,8.00
2023-03-20T05:15:49.088Z,8.00
2023-03-20T05:16:49.124Z,8.00
2023-03-20T05:17:51.639Z,8.00
2023-03-20T05:18:49.086Z,12.00
2023-03-20T05:19:49.072Z,12.00
2023-03-20T05:20:49.031Z,12.00
2023-03-20T05:21:49.026Z,16.00
2023-03-20T05:22:49.023Z,16.00
2023-03-20T05:23:49.009Z,20.00
2023-03-20T05:24:54.011Z,20.00
2023-03-20T05:25:48.986Z,20.00
2023-03-20T05:26:48.965Z,28.00
2023-03-20T05:27:48.954Z,32.00
2023-03-20T05:28:48.952Z,44.00
2023-03-20T05:29:48.931Z,48.00
2023-03-20T05:30:48.929Z,48.00
2023-03-20T05:31:48.936Z,48.00
2023-03-20T05:32:48.957Z,44.00
2023-03-20T05:33:48.899Z,52.00
2023-03-20T05:34:48.898Z,64.00
2023-03-20T05:35:53.962Z,84.00
2023-03-20T05:36:48.851Z,104.00
2023-03-20T05:37:48.867Z,116.00
2023-03-20T05:38:48.842Z,128.00
2023-03-20T05:39:48.825Z,156.00
2023-03-20T05:40:48.811Z,192.00
2023-03-20T05:41:48.809Z,224.00
2023-03-20T05:42:48.785Z,244.00
2023-03-20T05:43:48.805Z,268.00
2023-03-20T05:44:48.766Z,296.00
2023-03-20T05:45:48.823Z,332.00
2023-03-20T05:46:53.774Z,368.00
2023-03-20T05:47:48.737Z,400.00
2023-03-20T05:48:48.728Z,456.00
2023-03-20T05:49:48.749Z,520.00
2023-03-20T05:50:48.714Z,568.00
2023-03-20T05:51:48.693Z,556.00
2023-03-20T05:52:48.671Z,512.00
2023-03-20T05:53:48.673Z,476.00
2023-03-20T05:54:48.652Z,476.00
2023-03-20T05:55:48.655Z,496.00
2023-03-20T05:56:48.705Z,524.00
2023-03-20T05:57:53.642Z,548.00
2023-03-20T05:58:48.620Z,548.00
2023-03-20T05:59:48.614Z,544.00
2023-03-20T06:00:48.595Z,532.00
2023-03-20T06:01:48.599Z,496.00
2023-03-20T06:02:48.583Z,468.00
2023-03-20T06:03:48.655Z,460.00
2023-03-20T06:04:48.543Z,460.00
2023-03-20T06:05:48.531Z,464.00
2023-03-20T06:06:48.541Z,500.00
2023-03-20T06:07:48.521Z,532.00
2023-03-20T06:08:53.528Z,544.00
2023-03-20T06:09:48.488Z,516.00
2023-03-20T06:10:48.474Z,488.00
2023-03-20T06:11:48.467Z,428.00
2023-03-20T06:12:48.476Z,372.00
2023-03-20T06:13:48.457Z,332.00
2023-03-20T06:14:48.439Z,312.00
2023-03-20T06:15:48.435Z,320.00
2023-03-20T06:16:48.409Z,332.00
2023-03-20T06:17:48.429Z,348.00
2023-03-20T06:18:48.386Z,360.00
2023-03-20T06:19:53.454Z,380.00
2023-03-20T06:20:48.363Z,404.00
2023-03-20T06:21:48.354Z,428.00
2023-03-20T06:22:48.363Z,472.00
2023-03-20T06:23:48.337Z,532.00
2023-03-20T06:24:48.329Z,592.00
2023-03-20T06:25:48.326Z,628.00
2023-03-20T06:26:48.296Z,632.00
2023-03-20T06:27:48.285Z,636.00
2023-03-20T06:28:48.275Z,640.00
2023-03-20T06:29:48.273Z,648.00
2023-03-20T06:30:53.459Z,656.00
2023-03-20T06:31:48.261Z,652.00
2023-03-20T06:32:48.342Z,660.00
2023-03-20T06:33:48.216Z,672.00
2023-03-20T06:34:48.225Z,684.00
2023-03-20T06:35:48.255Z,688.00
2023-03-20T06:36:48.183Z,688.00
2023-03-20T06:37:48.193Z,684.00
2023-03-20T06:38:48.182Z,684.00
2023-03-20T06:39:48.158Z,700.00
2023-03-20T06:40:48.146Z,728.00
2023-03-20T06:41:53.153Z,780.00
2023-03-20T06:42:48.117Z,832.00
2023-03-20T06:43:48.126Z,888.00
2023-03-20T06:44:48.103Z,940.00
2023-03-20T06:45:48.080Z,1000.00
2023-03-20T06:46:48.100Z,1028.00
2023-03-20T06:47:48.065Z,1036.00
2023-03-20T06:48:48.074Z,1024.00
2023-03-20T06:49:48.080Z,968.00
2023-03-20T06:50:48.031Z,884.00
2023-03-20T06:51:48.017Z,804.00
2023-03-20T06:52:53.033Z,752.00
2023-03-20T06:53:47.993Z,704.00
2023-03-20T06:54:48.008Z,672.00
2023-03-20T06:55:47.991Z,676.00
2023-03-20T06:56:47.962Z,684.00
2023-03-20T06:57:47.945Z,688.00
2023-03-20T06:58:47.939Z,696.00
2023-03-20T06:59:47.945Z,712.00
2023-03-20T07:00:47.914Z,720.00
2023-03-20T07:01:48.140Z,700.00
2023-03-20T07:02:47.891Z,684.00
2023-03-20T07:03:52.911Z,684.00
2023-03-20T07:04:47.900Z,680.00
2023-03-20T07:05:47.859Z,672.00
2023-03-20T07:06:47.850Z,676.00
2023-03-20T07:07:47.861Z,680.00
2023-03-20T07:08:47.826Z,680.00
2023-03-20T07:09:47.825Z,680.00
2023-03-20T07:10:47.830Z,708.00
2023-03-20T07:11:47.796Z,712.00
2023-03-20T07:12:47.785Z,732.00
2023-03-20T07:13:49.842Z,764.00
2023-03-20T07:14:52.802Z,816.00
2023-03-20T07:16:03.032Z,896.00
2023-03-20T07:16:47.827Z,964.00
2023-03-20T07:17:47.731Z,1044.00
2023-03-20T07:18:47.722Z,1128.00
2023-03-20T07:19:47.752Z,1256.00
2023-03-20T07:20:47.697Z,1444.00
2023-03-20T07:21:47.686Z,1612.00
2023-03-20T07:22:47.677Z,1728.00
2023-03-20T07:23:47.666Z,1800.00
2023-03-20T07:24:47.684Z,1868.00
2023-03-20T07:25:52.691Z,1896.00
2023-03-20T07:26:47.636Z,1924.00
2023-03-20T07:27:47.617Z,2008.00
2023-03-20T07:28:47.610Z,1988.00
2023-03-20T07:29:47.616Z,1972.00
2023-03-20T07:30:47.590Z,2056.00
2023-03-20T07:31:47.630Z,2144.00
2023-03-20T07:32:47.599Z,2196.00
2023-03-20T07:33:47.556Z,2304.00
2023-03-20T07:34:47.595Z,2432.00
2023-03-20T07:35:47.614Z,2584.00
2023-03-20T07:36:52.542Z,2712.00
2023-03-20T07:37:47.535Z,2632.00
2023-03-20T07:38:47.495Z,2512.00
2023-03-20T07:39:47.492Z,2308.00
2023-03-20T07:40:47.471Z,2080.00
2023-03-20T07:41:47.497Z,2084.00
2023-03-20T07:42:47.481Z,2076.00
2023-03-20T07:43:47.441Z,2068.00
2023-03-20T07:44:47.452Z,2012.00
2023-03-20T07:45:47.459Z,1920.00
2023-03-20T07:46:47.407Z,1936.00
2023-03-20T07:47:52.445Z,2072.00
2023-03-20T07:48:47.378Z,2200.00
2023-03-20T07:49:47.406Z,2124.00
2023-03-20T07:50:47.389Z,1984.00
2023-03-20T07:51:47.345Z,1852.00
2023-03-20T07:52:47.336Z,1732.00
2023-03-20T07:53:47.324Z,1624.00
2023-03-20T07:54:47.329Z,1484.00
2023-03-20T07:55:47.334Z,1368.00
2023-03-20T07:56:47.295Z,1256.00
2023-03-20T07:57:47.299Z,1164.00
2023-03-20T07:58:52.299Z,1068.00
2023-03-20T07:59:47.269Z,968.00
2023-03-20T08:00:47.248Z,920.00
2023-03-20T08:01:47.253Z,928.00
2023-03-20T08:02:47.377Z,924.00
2023-03-20T08:03:47.278Z,924.00
2023-03-20T08:04:47.213Z,912.00
2023-03-20T08:05:47.994Z,880.00
2023-03-20T08:06:47.184Z,856.00
2023-03-20T08:07:47.194Z,856.00
2023-03-20T08:08:47.156Z,956.00
2023-03-20T08:09:52.178Z,1112.00
2023-03-20T08:10:47.137Z,1188.00
2023-03-20T08:11:47.124Z,1172.00
2023-03-20T08:12:47.117Z,1140.00
2023-03-20T08:13:47.145Z,1080.00
2023-03-20T08:14:47.108Z,1016.00
2023-03-20T08:15:47.185Z,1028.00
2023-03-20T08:16:47.166Z,1100.00
2023-03-20T08:17:47.086Z,1244.00
2023-03-20T08:18:47.053Z,1396.00
2023-03-20T08:19:47.065Z,1456.00
2023-03-20T08:20:52.053Z,1480.00
2023-03-20T08:21:47.019Z,1548.00
2023-03-20T08:22:47.007Z,1652.00
2023-03-20T08:23:47.008Z,1728.00
2023-03-20T08:24:47.017Z,1764.00
2023-03-20T08:25:46.981Z,1764.00
2023-03-20T08:26:46.963Z,1748.00
2023-03-20T08:27:46.949Z,1688.00
2023-03-20T08:28:48.616Z,1636.00
2023-03-20T08:29:46.979Z,1588.00
2023-03-20T08:30:46.932Z,1608.00
2023-03-20T08:31:51.943Z,1660.00
2023-03-20T08:32:46.989Z,1704.00
2023-03-20T08:33:46.892Z,1756.00
2023-03-20T08:34:46.887Z,1836.00
2023-03-20T08:35:47.296Z,1980.00
2023-03-20T08:36:46.856Z,1928.00
2023-03-20T08:37:46.872Z,1768.00
2023-03-20T08:38:46.835Z,1752.00
2023-03-20T08:39:46.835Z,1684.00
2023-03-20T08:40:46.809Z,1704.00
2023-03-20T08:41:46.797Z,1884.00
2023-03-20T08:42:51.812Z,2012.00
2023-03-20T08:43:46.824Z,2172.00
2023-03-20T08:44:46.772Z,2148.00
2023-03-20T08:45:46.847Z,2156.00
2023-03-20T08:46:46.752Z,2312.00
2023-03-20T08:47:46.729Z,2384.00
2023-03-20T08:48:46.720Z,2280.00
2023-03-20T08:49:46.715Z,2212.00
2023-03-20T08:50:46.844Z,2272.00
2023-03-20T08:51:46.694Z,2152.00
2023-03-20T08:52:46.677Z,2028.00
2023-03-20T08:53:51.685Z,2084.00
2023-03-20T08:54:46.674Z,1996.00
2023-03-20T08:55:46.642Z,1964.00
2023-03-20T08:56:46.656Z,1828.00
2023-03-20T08:57:46.614Z,1720.00
2023-03-20T08:58:46.617Z,1632.00
2023-03-20T08:59:46.602Z,1712.00
2023-03-20T09:00:46.590Z,1876.00
2023-03-20T09:01:50.193Z,1876.00
2023-03-20T09:02:46.595Z,1684.00
2023-03-20T09:03:46.580Z,1960.00
2023-03-20T09:04:51.585Z,2180.00
2023-03-20T09:05:46.540Z,2292.00
2023-03-20T09:06:46.515Z,2372.00
2023-03-20T09:07:46.540Z,2440.00
2023-03-20T09:08:46.506Z,2260.00
2023-03-20T09:09:46.486Z,2128.00
2023-03-20T09:10:46.482Z,2156.00
2023-03-20T09:11:46.456Z,2160.00
2023-03-20T09:12:46.446Z,2312.00
2023-03-20T09:13:46.433Z,2652.00
2023-03-20T09:14:46.473Z,2804.00
2023-03-20T09:15:51.631Z,2860.00
2023-03-20T09:16:46.400Z,2908.00
2023-03-20T09:17:46.555Z,2976.00
2023-03-20T09:18:46.381Z,2792.00
2023-03-20T09:19:46.367Z,2568.00
2023-03-20T09:20:46.394Z,2308.00
2023-03-20T09:21:46.348Z,2088.00
2023-03-20T09:22:46.365Z,2016.00
2023-03-20T09:23:46.322Z,2040.00
2023-03-20T09:24:46.315Z,2500.00
2023-03-20T09:25:46.317Z,3264.00
2023-03-20T09:26:51.312Z,3824.00
2023-03-20T09:27:46.316Z,3964.00
2023-03-20T09:28:46.274Z,3996.00
2023-03-20T09:29:46.260Z,4044.00
2023-03-20T09:30:46.349Z,4412.00
2023-03-20T09:31:46.235Z,5088.00
2023-03-20T09:32:46.265Z,5440.00
2023-03-20T09:33:46.322Z,5588.00
2023-03-20T09:34:46.204Z,5712.00
2023-03-20T09:35:46.207Z,5760.00
2023-03-20T09:36:46.181Z,6032.00
2023-03-20T09:37:51.186Z,6312.00
2023-03-20T09:38:46.156Z,6276.00
2023-03-20T09:39:46.169Z,5904.00
2023-03-20T09:40:46.141Z,5888.00
2023-03-20T09:41:56.586Z,6380.00
2023-03-20T09:42:47.119Z,6312.00
2023-03-20T09:43:46.104Z,6424.00
2023-03-20T09:44:46.106Z,6440.00
2023-03-20T09:45:46.114Z,5816.00
2023-03-20T09:46:46.179Z,5812.00
2023-03-20T09:47:46.054Z,6748.00
2023-03-20T09:48:54.257Z,7036.00
2023-03-20T09:49:46.033Z,6620.00
2023-03-20T09:50:46.033Z,6964.00
2023-03-20T09:51:46.030Z,6112.00
2023-03-20T09:52:46.004Z,5372.00
2023-03-20T09:53:45.999Z,7044.00
2023-03-20T09:54:54.033Z,7932.00
2023-03-20T09:55:46.035Z,6456.00
2023-03-20T09:56:45.957Z,5988.00
2023-03-20T09:57:45.950Z,5660.00
2023-03-20T09:58:45.935Z,4724.00
2023-03-20T09:59:50.939Z,4192.00
2023-03-20T10:00:45.930Z,3944.00
2023-03-20T10:01:45.985Z,3812.00
2023-03-20T10:02:45.901Z,3472.00
2023-03-20T10:03:45.905Z,3432.00
2023-03-20T10:04:45.914Z,3780.00
2023-03-20T10:05:45.867Z,4400.00
2023-03-20T10:06:45.847Z,5192.00
2023-03-20T10:07:45.839Z,5716.00
2023-03-20T10:08:45.822Z,6600.00
2023-03-20T10:09:45.834Z,6972.00
2023-03-20T10:10:50.830Z,6464.00
2023-03-20T10:11:45.791Z,5936.00
2023-03-20T10:12:45.772Z,6068.00
2023-03-20T10:13:45.760Z,5776.00
2023-03-20T10:14:45.758Z,6240.00
2023-03-20T10:15:45.782Z,7064.00
2023-03-20T10:16:45.730Z,7728.00
2023-03-20T10:17:45.717Z,8964.00
2023-03-20T10:18:45.711Z,9224.00
2023-03-20T10:19:45.699Z,9588.00
2023-03-20T10:20:45.722Z,9288.00
2023-03-20T10:21:50.825Z,8516.00
2023-03-20T10:22:45.671Z,8544.00
2023-03-20T10:23:45.647Z,9240.00
2023-03-20T10:24:45.638Z,9060.00
2023-03-20T10:25:45.634Z,9224.00
2023-03-20T10:26:45.616Z,8636.00
2023-03-20T10:27:45.631Z,6876.00
2023-03-20T10:28:45.628Z,5648.00
2023-03-20T10:29:45.584Z,5008.00
2023-03-20T10:30:45.597Z,5352.00
2023-03-20T10:31:45.602Z,7256.00
2023-03-20T10:32:50.616Z,8916.00
2023-03-20T10:33:45.560Z,8476.00
2023-03-20T10:34:45.535Z,6808.00
2023-03-20T10:35:45.621Z,5384.00
2023-03-20T10:36:45.537Z,4444.00
2023-03-20T10:37:45.500Z,3912.00
2023-03-20T10:38:45.492Z,3592.00
2023-03-20T10:39:45.496Z,3808.00
2023-03-20T10:40:45.473Z,4440.00
2023-03-20T10:41:45.446Z,4640.00
2023-03-20T10:42:45.436Z,4692.00
2023-03-20T10:43:50.448Z,5288.00
2023-03-20T10:44:45.428Z,5744.00
2023-03-20T10:45:45.448Z,6196.00
2023-03-20T10:46:45.519Z,5196.00
2023-03-20T10:47:45.392Z,4364.00
2023-03-20T10:48:45.371Z,4388.00
2023-03-20T10:49:45.357Z,4324.00
2023-03-20T10:50:45.385Z,4216.00
2023-03-20T10:51:45.358Z,3936.00
2023-03-20T10:52:45.344Z,3856.00
2023-03-20T10:53:45.316Z,3324.00
2023-03-20T10:54:50.328Z,3076.00
2023-03-20T10:55:45.314Z,2876.00
2023-03-20T10:56:45.329Z,3208.00
2023-03-20T10:57:45.298Z,3728.00
2023-03-20T10:58:45.258Z,3832.00
2023-03-20T10:59:45.245Z,4808.00
2023-03-20T11:00:45.254Z,5980.00
2023-03-20T11:01:45.232Z,7344.00
2023-03-20T11:02:45.223Z,8688.00
2023-03-20T11:03:45.237Z,11788.00
2023-03-20T11:04:45.192Z,18496.00
2023-03-20T11:06:06.407Z,26560.00
2023-03-20T11:06:46.180Z,34240.00
2023-03-20T11:07:45.163Z,42336.00
2023-03-20T11:08:45.170Z,46432.00
2023-03-20T11:09:45.170Z,33760.00
2023-03-20T11:10:45.133Z,27232.00
2023-03-20T11:11:45.123Z,20896.00
2023-03-20T11:12:45.105Z,19392.00
2023-03-20T11:13:45.103Z,23648.00
2023-03-20T11:14:45.083Z,14688.00
2023-03-20T11:15:45.094Z,12668.00
2023-03-20T11:16:50.184Z,11492.00
2023-03-20T11:17:45.052Z,10048.00
2023-03-20T11:18:45.038Z,9888.00
2023-03-20T11:19:45.030Z,10096.00
2023-03-20T11:20:45.015Z,10872.00
2023-03-20T11:21:45.019Z,16640.00
2023-03-20T11:22:44.993Z,18016.00
2023-03-20T11:23:44.981Z,21184.00
2023-03-20T11:24:45.023Z,25568.00
2023-03-20T11:25:44.963Z,27328.00
2023-03-20T11:26:44.960Z,25952.00
2023-03-20T11:27:49.970Z,30496.00
2023-03-20T11:28:44.925Z,51456.00
2023-03-20T11:29:45.972Z,44768.00
2023-03-20T11:31:03.249Z,40160.00
2023-03-20T11:31:44.966Z,27328.00
2023-03-20T11:32:44.911Z,35584.00
2023-03-20T11:33:44.906Z,35712.00
2023-03-20T11:34:44.869Z,36000.00
2023-03-20T11:35:44.891Z,26144.00
2023-03-20T11:36:48.825Z,28224.00
2023-03-20T11:37:44.827Z,27680.00
2023-03-20T11:38:49.835Z,14220.00
2023-03-20T11:39:44.812Z,20800.00
2023-03-20T11:40:44.808Z,29120.00
2023-03-20T11:41:44.796Z,21312.00
2023-03-20T11:42:44.772Z,16384.00
2023-03-20T11:43:44.756Z,30592.00
2023-03-20T11:44:44.749Z,76768.00
2023-03-20T11:45:44.767Z,83104.00
2023-03-20T11:46:44.806Z,60256.00
2023-03-20T11:47:44.709Z,54400.00
2023-03-20T11:48:44.697Z,41856.00
2023-03-20T11:49:49.710Z,26816.00
2023-03-20T11:50:44.673Z,21504.00
2023-03-20T11:51:44.724Z,15016.00
2023-03-20T11:52:44.650Z,12864.00
2023-03-20T11:53:46.977Z,12980.00
2023-03-20T11:54:44.629Z,13532.00
2023-03-20T11:55:44.619Z,10724.00
2023-03-20T11:56:44.638Z,10564.00
2023-03-20T11:57:47.301Z,10776.00
2023-03-20T11:58:44.607Z,10360.00
2023-03-20T11:59:44.580Z,10764.00
2023-03-20T12:00:49.587Z,10324.00
2023-03-20T12:01:44.567Z,10304.00
2023-03-20T12:02:44.615Z,11284.00
2023-03-20T12:03:44.543Z,11240.00
2023-03-20T12:04:44.529Z,13544.00
2023-03-20T12:05:44.525Z,20448.00
2023-03-20T12:06:44.511Z,24352.00
2023-03-20T12:07:44.497Z,32800.00
2023-03-20T12:08:44.474Z,47264.00
2023-03-20T12:09:44.465Z,41344.00
2023-03-20T12:10:44.467Z,39808.00
2023-03-20T12:11:49.524Z,32832.00
2023-03-20T12:12:44.435Z,28704.00
2023-03-20T12:13:44.420Z,21152.00
2023-03-20T12:14:44.412Z,23680.00
2023-03-20T12:15:44.407Z,19392.00
2023-03-20T12:16:44.389Z,16896.00
2023-03-20T12:17:44.400Z,16480.00
2023-03-20T12:18:44.363Z,16800.00
2023-03-20T12:19:44.359Z,15956.00
2023-03-20T12:20:44.341Z,15444.00
2023-03-20T12:21:45.810Z,14704.00
2023-03-20T12:22:49.353Z,15048.00
2023-03-20T12:23:44.331Z,15324.00
2023-03-20T12:24:44.297Z,14484.00
2023-03-20T12:25:44.288Z,14488.00
2023-03-20T12:26:44.303Z,14852.00
2023-03-20T12:27:44.292Z,15488.00
2023-03-20T12:28:44.253Z,17280.00
2023-03-20T12:29:44.255Z,19424.00
2023-03-20T12:30:44.300Z,26464.00
2023-03-20T12:31:44.219Z,19200.00
2023-03-20T12:32:44.241Z,19680.00
2023-03-20T12:33:49.219Z,17952.00
2023-03-20T12:34:44.188Z,17408.00
2023-03-20T12:35:44.229Z,17024.00
2023-03-20T12:36:44.169Z,13252.00